Time;durP1;ratioP1;P1;durP2;ratioP2;P2;SDS_P1;SDS_P2;PMS_P1;PMS_P2;Temp;Humidity;BMP_temperature;BMP_pressure;BME280_temperature;BME280_humidity;BME280_pressure;Samples;Min_cycle;Max_cycle;Signal;HPM_P1;HPM_P2
2023/10/12 00:01:01;;;;;;;0.10;0.10;;;;;;;15.77;100.00;96305.28;5019352;28;20066;-76
2023/10/12 00:03:47;;;;;;;0.00;0.00;;;;;;;15.73;100.00;96309.66;5022384;28;20044;-75
2023/10/12 00:06:37;;;;;;;0.00;0.00;;;;;;;15.69;100.00;96313.97;5021017;28;20127;-75
2023/10/12 00:09:25;;;;;;;0.08;0.08;;;;;;;15.64;100.00;96305.97;5023677;28;20047;-75
2023/10/12 00:12:11;;;;;;;0.10;0.10;;;;;;;15.58;100.00;96310.56;5021112;28;20049;-75
2023/10/12 00:15:02;;;;;;;0.10;0.10;;;;;;;15.61;100.00;96306.50;5021987;28;20053;-75
2023/10/12 00:17:50;;;;;;;0.10;0.10;;;;;;;15.58;100.00;96301.66;5023447;28;20037;-75
2023/10/12 00:20:37;;;;;;;0.08;0.08;;;;;;;15.52;100.00;96292.00;5021391;28;20037;-75
2023/10/12 00:23:26;;;;;;;0.10;0.10;;;;;;;15.50;100.00;96295.00;5019667;28;20060;-75
2023/10/12 00:26:13;;;;;;;0.10;0.10;;;;;;;15.52;100.00;96297.41;5026236;28;20099;-75
2023/10/12 00:28:59;;;;;;;0.10;0.10;;;;;;;15.48;100.00;96301.72;5034222;28;20047;-75
2023/10/12 00:31:47;;;;;;;0.00;0.00;;;;;;;15.42;100.00;96298.28;5036231;28;20487;-75
2023/10/12 00:34:46;;;;;;;0.10;0.10;;;;;;;15.43;100.00;96307.19;5021205;28;20037;-75
2023/10/12 00:37:32;;;;;;;0.10;0.10;;;;;;;15.47;100.00;96311.72;5020579;28;20044;-77
2023/10/12 00:40:26;;;;;;;0.10;0.10;;;;;;;15.47;100.00;96319.00;5018870;28;20041;-75
2023/10/12 00:43:15;;;;;;;0.10;0.10;;;;;;;15.47;100.00;96313.59;5020694;28;20759;-75
2023/10/12 00:46:16;;;;;;;0.00;0.00;;;;;;;15.47;100.00;96316.31;5034487;28;20077;-75
2023/10/12 00:49:18;;;;;;;0.10;0.10;;;;;;;15.46;100.00;96288.53;5035089;28;20429;-76
2023/10/12 00:52:21;;;;;;;0.10;0.10;;;;;;;15.44;100.00;96295.31;5033086;28;20136;-75
2023/10/12 00:55:21;;;;;;;0.10;0.10;;;;;;;15.49;100.00;96301.47;5021416;28;20033;-75
2023/10/12 00:58:10;;;;;;;0.08;0.08;;;;;;;15.56;100.00;96306.50;5018721;28;20143;-75
2023/10/12 01:01:01;;;;;;;0.00;0.00;;;;;;;15.60;100.00;96296.78;5021275;28;20057;-75
2023/10/12 01:03:50;;;;;;;0.10;0.10;;;;;;;15.63;100.00;96307.03;5021507;28;20064;-75
2023/10/12 01:06:38;;;;;;;0.10;0.10;;;;;;;15.70;100.00;96298.59;5021627;28;20176;-75
2023/10/12 01:09:26;;;;;;;0.10;0.10;;;;;;;15.70;100.00;96295.91;5023297;28;20286;-75
2023/10/12 01:12:16;;;;;;;0.10;0.10;;;;;;;15.69;100.00;96297.78;5032524;28;20045;-75
2023/10/12 01:15:09;;;;;;;0.00;0.00;;;;;;;15.72;100.00;96310.72;5024239;28;20050;-75
2023/10/12 01:17:56;;;;;;;0.00;0.00;;;;;;;15.73;100.00;96292.66;5023475;28;20057;-75
2023/10/12 01:20:42;;;;;;;0.10;0.10;;;;;;;15.70;100.00;96301.28;5020125;28;20037;-75
2023/10/12 01:23:30;;;;;;;0.00;0.00;;;;;;;15.67;100.00;96305.38;5022404;28;20131;-75
2023/10/12 01:26:17;;;;;;;0.10;0.10;;;;;;;15.66;100.00;96294.88;5034853;28;20045;-75
2023/10/12 01:29:04;;;;;;;0.10;0.10;;;;;;;15.68;100.00;96304.28;5020565;28;20106;-75
2023/10/12 01:35:12;;;;;;;0.05;0.05;;;;;;;15.70;100.00;96291.31;5005790;28;20049;-75
2023/10/12 01:38:01;;;;;;;0.10;0.10;;;;;;;15.77;100.00;96301.78;5031989;28;20057;-76
2023/10/12 01:43:36;;;;;;;0.00;0.00;;;;;;;15.83;100.00;96279.06;5022841;28;20401;-75
2023/10/12 01:46:22;;;;;;;0.05;0.05;;;;;;;15.83;100.00;96287.94;5022777;28;20045;-75
2023/10/12 01:49:09;;;;;;;0.10;0.10;;;;;;;15.80;100.00;96269.66;5021153;28;20056;-75
2023/10/12 01:51:57;;;;;;;0.00;0.00;;;;;;;15.81;100.00;96270.44;5022399;28;20060;-75
2023/10/12 01:54:44;;;;;;;0.10;0.10;;;;;;;15.86;100.00;96267.69;5021169;28;20060;-75
2023/10/12 01:57:36;;;;;;;0.00;0.00;;;;;;;15.90;100.00;96262.53;5021135;28;20075;-75
2023/10/12 02:00:27;;;;;;;0.10;0.10;;;;;;;15.87;100.00;96263.88;5033383;28;20033;-75
2023/10/12 02:03:15;;;;;;;0.10;0.10;;;;;;;15.90;100.00;96279.53;5021650;28;20558;-75
2023/10/12 02:06:04;;;;;;;0.10;0.10;;;;;;;15.94;100.00;96279.75;5035372;28;20085;-76
2023/10/12 02:08:52;;;;;;;0.10;0.10;;;;;;;15.99;100.00;96293.19;5021901;28;20083;-76
2023/10/12 02:11:53;;;;;;;0.10;0.10;;;;;;;15.98;100.00;96291.59;5018261;28;20425;-75
2023/10/12 02:14:40;;;;;;;0.10;0.10;;;;;;;16.01;100.00;96305.28;5019323;28;20120;-75
2023/10/12 02:17:26;;;;;;;0.00;0.00;;;;;;;16.01;100.00;96308.00;5033808;28;20577;-76
2023/10/12 02:20:14;;;;;;;0.10;0.10;;;;;;;15.96;100.00;96307.25;5019527;28;20041;-77
2023/10/12 02:23:04;;;;;;;0.10;0.10;;;;;;;15.95;100.00;96297.53;5019510;28;20045;-75
2023/10/12 02:25:52;;;;;;;0.10;0.10;;;;;;;15.95;100.00;96297.53;5018960;28;20038;-75
2023/10/12 02:28:38;;;;;;;0.10;0.10;;;;;;;15.91;100.00;96291.91;5031350;28;20052;-76
2023/10/12 02:31:28;;;;;;;0.10;0.10;;;;;;;15.86;100.00;96295.47;5019665;28;20041;-76
2023/10/12 02:34:16;;;;;;;0.10;0.10;;;;;;;15.88;100.00;96309.50;5018016;28;20599;-75
2023/10/12 02:39:56;;;;;;;0.10;0.10;;;;;;;15.85;100.00;96317.34;5019257;28;20053;-76
2023/10/12 02:42:43;;;;;;;0.10;0.10;;;;;;;15.82;100.00;96332.22;5017800;28;20132;-75
2023/10/12 02:45:29;;;;;;;0.05;0.05;;;;;;;15.80;100.00;96345.19;5033309;28;20565;-75
2023/10/12 02:48:23;;;;;;;0.10;0.10;;;;;;;15.81;100.00;96351.38;5016613;28;20834;-75
2023/10/12 02:51:14;;;;;;;0.00;0.00;;;;;;;15.72;100.00;96348.50;5021655;28;20037;-75
2023/10/12 02:54:03;;;;;;;0.10;0.10;;;;;;;15.75;100.00;96363.31;5018427;28;20052;-75
2023/10/12 02:56:56;;;;;;;0.05;0.05;;;;;;;15.64;100.00;96362.59;5020334;28;20041;-75
2023/10/12 02:59:46;;;;;;;0.10;0.10;;;;;;;15.68;100.00;96360.94;5021438;28;20390;-76
2023/10/12 03:02:35;;;;;;;0.10;0.10;;;;;;;15.62;100.00;96366.66;5017954;28;20045;-75
2023/10/12 03:05:32;;;;;;;0.10;0.10;;;;;;;15.70;100.00;96363.34;5033018;28;20048;-75
2023/10/12 03:08:21;;;;;;;0.10;0.10;;;;;;;15.69;100.00;96356.34;5033202;28;20041;-75
2023/10/12 03:11:12;;;;;;;0.00;0.00;;;;;;;15.69;100.00;96364.44;5018343;28;20061;-75
2023/10/12 03:14:11;;;;;;;;;;;;;;;15.71;100.00;96389.22;5019377;28;20132;-75
2023/10/12 03:17:03;;;;;;;0.10;0.10;;;;;;;15.72;100.00;96397.06;5030071;28;19949;-75
2023/10/12 03:19:55;;;;;;;0.10;0.10;;;;;;;15.65;100.00;96391.19;5031406;28;20151;-75
2023/10/12 03:22:43;;;;;;;0.00;0.00;;;;;;;15.58;100.00;96396.84;5019602;28;20048;-76
2023/10/12 03:25:51;;;;;;;0.05;0.05;;;;;;;15.47;100.00;96384.53;5032328;28;20769;-75
2023/10/12 03:28:44;;;;;;;0.10;0.10;;;;;;;15.45;100.00;96396.69;5037629;28;20714;-75
2023/10/12 03:31:35;;;;;;;0.00;0.00;;;;;;;15.29;100.00;96410.25;5035860;28;20053;-75
2023/10/12 03:34:35;;;;;;;0.10;0.10;;;;;;;15.16;100.00;96413.56;5022536;28;20038;-76
2023/10/12 03:43:32;;;;;;;0.03;0.03;;;;;;;14.95;100.00;96417.47;5022044;28;20041;-76
2023/10/12 03:46:26;;;;;;;0.10;0.10;;;;;;;14.92;100.00;96418.00;5023312;28;20973;-76
2023/10/12 03:49:32;;;;;;;0.10;0.10;;;;;;;14.86;100.00;96416.41;5025016;28;20758;-76
2023/10/12 03:52:52;;;;;;;0.10;0.10;;;;;;;14.81;100.00;96409.19;5024992;28;20041;-76
2023/10/12 03:55:32;;;;;;;0.10;0.10;;;;;;;14.77;100.00;96430.47;5025307;28;20072;-76
2023/10/12 03:58:23;;;;;;;0.03;0.03;;;;;;;14.79;100.00;96440.97;5023140;28;20069;-76
2023/10/12 04:01:22;;;;;;;0.10;0.10;;;;;;;14.75;100.00;96446.09;5021713;28;20125;-75
2023/10/12 04:07:17;;;;;;;0.00;0.00;;;;;;;14.76;100.00;96422.66;5012538;28;20045;-76
2023/10/12 04:10:14;;;;;;;0.00;0.00;;;;;;;14.74;100.00;96398.69;5023185;28;20053;-76
2023/10/12 04:13:09;;;;;;;0.10;0.10;;;;;;;14.71;100.00;96388.50;5023811;28;20311;-76
2023/10/12 04:16:09;;;;;;;0.05;0.05;;;;;;;14.69;100.00;96411.38;5023061;28;20207;-76
2023/10/12 04:21:56;;;;;;;0.00;0.00;;;;;;;14.56;100.00;96402.00;5025418;28;20461;-76
2023/10/12 04:24:45;;;;;;;0.10;0.10;;;;;;;14.57;100.00;96375.88;5021125;28;20127;-76
2023/10/12 04:33:43;;;;;;;0.10;0.10;;;;;;;14.28;100.00;96373.00;5025759;28;20713;-76
2023/10/12 04:36:48;;;;;;;0.10;0.10;;;;;;;14.30;100.00;96368.94;5024787;28;20098;-76
2023/10/12 04:39:37;;;;;;;0.10;0.10;;;;;;;14.32;100.00;96361.41;5035295;28;20090;-75
2023/10/12 04:42:33;;;;;;;0.10;0.10;;;;;;;14.32;100.00;96341.75;5023515;28;20673;-75
2023/10/12 04:48:17;;;;;;;0.10;0.10;;;;;;;14.41;100.00;96299.75;5021411;28;20038;-75
2023/10/12 04:51:07;;;;;;;0.10;0.10;;;;;;;14.31;100.00;96280.94;5022380;28;20060;-76
2023/10/12 04:53:57;;;;;;;0.00;0.00;;;;;;;14.03;100.00;96269.75;5022369;28;20053;-76
2023/10/12 05:00:00;;;;;;;0.10;0.10;;;;;;;13.68;100.00;96285.97;5022446;28;20041;-76
2023/10/12 05:05:54;;;;;;;0.08;0.08;;;;;;;13.58;100.00;96360.19;5023383;28;20046;-76
2023/10/12 05:08:40;;;;;;;0.10;0.10;;;;;;;13.77;100.00;96376.56;5022201;28;20837;-76
2023/10/12 05:11:28;;;;;;;0.10;0.10;;;;;;;13.87;100.00;96405.34;5024210;28;21073;-76
2023/10/12 05:14:15;;;;;;;0.08;0.08;;;;;;;13.86;100.00;96415.31;5024804;28;20045;-76
2023/10/12 05:17:00;;;;;;;0.10;0.10;;;;;;;13.90;100.00;96411.00;5022168;28;20052;-76
2023/10/12 05:19:47;;;;;;;0.05;0.05;;;;;;;13.97;100.00;96404.53;5024204;28;20083;-76
2023/10/12 05:22:35;;;;;;;0.10;0.10;;;;;;;13.99;100.00;96407.75;5021444;28;20586;-76
2023/10/12 05:25:20;;;;;;;0.10;0.10;;;;;;;13.94;100.00;96424.72;5035337;28;20064;-76
2023/10/12 05:28:14;;;;;;;0.00;0.00;;;;;;;13.88;100.00;96431.19;5021289;28;20077;-76
2023/10/12 05:30:59;;;;;;;0.10;0.10;;;;;;;13.88;100.00;96437.34;5023238;28;20546;-76
2023/10/12 05:34:00;;;;;;;0.10;0.10;;;;;;;13.98;100.00;96457.25;5022373;28;20128;-76
2023/10/12 05:36:46;;;;;;;0.10;0.10;;;;;;;13.84;100.00;96438.16;5021225;28;20038;-76
2023/10/12 05:39:32;;;;;;;0.10;0.10;;;;;;;13.83;100.00;96441.94;5022485;28;20547;-75
2023/10/12 05:42:22;;;;;;;0.10;0.10;;;;;;;13.94;100.00;96425.53;5023176;28;20072;-76
2023/10/12 05:45:30;;;;;;;0.10;0.10;;;;;;;13.96;100.00;96437.91;5022449;28;21544;-75
2023/10/12 05:48:19;;;;;;;0.10;0.10;;;;;;;14.05;100.00;96417.44;5021209;28;20045;-75
2023/10/12 05:51:09;;;;;;;0.00;0.00;;;;;;;14.02;100.00;96394.59;5020151;28;20090;-75
2023/10/12 05:54:01;;;;;;;0.10;0.10;;;;;;;14.00;100.00;96453.22;5021749;28;20109;-76
2023/10/12 05:56:49;;;;;;;0.10;0.10;;;;;;;13.90;100.00;96472.06;5006115;28;20036;-76
2023/10/12 05:59:38;;;;;;;0.10;0.10;;;;;;;13.99;100.00;96456.97;5022014;28;20028;-76
2023/10/12 06:02:26;;;;;;;0.10;0.10;;;;;;;13.98;100.00;96476.09;5021326;28;20064;-76
2023/10/12 06:05:12;;;;;;;0.10;0.10;;;;;;;14.06;100.00;96497.88;5021553;28;20041;-76
2023/10/12 06:08:02;;;;;;;0.10;0.10;;;;;;;14.05;100.00;96477.44;5020046;28;20041;-76
2023/10/12 06:10:48;;;;;;;0.10;0.10;;;;;;;13.92;100.00;96457.25;5032765;28;20042;-77
2023/10/12 06:13:43;;;;;;;0.10;0.10;;;;;;;14.03;100.00;96441.94;5020929;28;20071;-77
2023/10/12 06:16:29;;;;;;;0.10;0.10;;;;;;;14.01;100.00;96454.00;5024233;28;20377;-77
2023/10/12 06:19:26;;;;;;;0.10;0.10;;;;;;;13.88;100.00;96477.72;5020384;28;20175;-77
2023/10/12 06:22:19;;;;;;;0.00;0.00;;;;;;;13.79;100.00;96487.38;5020252;28;20050;-77
2023/10/12 06:25:18;;;;;;;0.10;0.10;;;;;;;13.94;100.00;96503.53;5020681;28;20054;-77
2023/10/12 06:28:07;;;;;;;0.10;0.10;;;;;;;13.95;100.00;96507.03;5022260;28;20050;-76
2023/10/12 06:30:53;;;;;;;0.10;0.10;;;;;;;13.96;100.00;96505.16;5021476;28;20045;-77
2023/10/12 06:33:42;;;;;;;0.00;0.00;;;;;;;14.00;100.00;96512.41;5021649;28;20034;-76
2023/10/12 06:36:39;;;;;;;0.03;0.03;;;;;;;14.09;100.00;96516.19;5022500;28;20088;-77
2023/10/12 06:42:25;;;;;;;0.10;0.10;;;;;;;14.00;100.00;96487.38;5019875;28;20079;-77
2023/10/12 06:45:15;;;;;;;0.10;0.10;;;;;;;13.71;100.00;96487.13;5017841;28;20434;-77
2023/10/12 06:48:21;;;;;;;0.10;0.10;;;;;;;13.41;100.00;96477.13;5019356;28;20098;-76
2023/10/12 06:51:10;;;;;;;0.05;0.05;;;;;;;13.18;100.00;96456.88;5022428;28;20135;-76
2023/10/12 06:54:07;;;;;;;0.10;0.10;;;;;;;13.00;100.00;96448.22;5019027;28;20473;-76
2023/10/12 06:56:57;;;;;;;0.10;0.10;;;;;;;13.15;100.00;96454.69;5021359;28;20222;-76
2023/10/12 07:02:51;;;;;;;0.10;0.10;;;;;;;13.17;100.00;96458.75;5026444;28;20045;-76
2023/10/12 07:05:39;;;;;;;0.10;0.10;;;;;;;13.21;100.00;96467.91;5026555;28;20037;-76
2023/10/12 07:08:27;;;;;;;0.10;0.10;;;;;;;13.19;100.00;96459.28;5023680;28;20169;-76
2023/10/12 07:11:14;;;;;;;0.10;0.10;;;;;;;13.27;100.00;96476.81;5025917;28;20041;-76
2023/10/12 07:14:04;;;;;;;0.08;0.08;;;;;;;13.42;100.00;96474.16;5025837;28;20053;-76
2023/10/12 07:16:54;;;;;;;0.10;0.10;;;;;;;13.60;100.00;96483.59;5025560;28;20465;-76
2023/10/12 07:19:42;;;;;;;0.10;0.10;;;;;;;13.46;100.00;96488.66;5026015;28;20061;-76
2023/10/12 07:22:34;;;;;;;0.10;0.10;;;;;;;13.55;100.00;96505.91;5023978;28;20731;-76
2023/10/12 07:25:22;;;;;;;0.10;0.10;;;;;;;13.69;100.00;96516.94;5026107;28;20066;-76
2023/10/12 07:28:16;;;;;;;0.10;0.10;;;;;;;13.78;100.00;96511.88;5023996;28;20338;-76
2023/10/12 07:34:05;;;;;;;0.10;0.10;;;;;;;14.05;100.00;96528.56;5023882;28;20539;-76
2023/10/12 07:36:57;;;;;;;0.10;0.10;;;;;;;14.00;100.00;96520.47;5024242;28;20047;-76
2023/10/12 07:39:45;;;;;;;0.00;0.00;;;;;;;13.89;100.00;96526.94;5024908;28;20077;-76
2023/10/12 07:42:31;;;;;;;0.10;0.10;;;;;;;13.86;100.00;96532.84;5024296;28;20132;-76
2023/10/12 07:45:18;;;;;;;0.10;0.10;;;;;;;13.83;100.00;96531.47;5023507;28;20043;-76
2023/10/12 07:48:09;;;;;;;0.00;0.00;;;;;;;13.69;100.00;96540.34;5022867;28;20199;-76
2023/10/12 07:50:55;;;;;;;0.10;0.10;;;;;;;13.78;100.00;96546.81;5024116;28;20065;-76
2023/10/12 07:53:42;;;;;;;0.03;0.03;;;;;;;13.79;100.00;96541.19;5023086;28;20174;-76
2023/10/12 07:56:33;;;;;;;0.10;0.10;;;;;;;13.62;100.00;96536.03;5023096;28;20509;-76
2023/10/12 07:59:22;;;;;;;0.10;0.10;;;;;;;13.65;100.00;96553.50;5023809;28;20036;-76
2023/10/12 08:02:15;;;;;;;0.10;0.10;;;;;;;13.69;100.00;96543.03;5022346;28;20524;-76
2023/10/12 08:05:15;;;;;;;0.10;0.10;;;;;;;13.59;100.00;96554.56;5021178;28;20079;-76
2023/10/12 08:13:39;;;;;;;0.10;0.10;;;;;;;13.56;100.00;96565.84;5023586;28;20045;-76
2023/10/12 08:16:28;;;;;;;0.00;0.00;;;;;;;13.49;100.00;96571.47;5023669;28;20561;-77
2023/10/12 08:20:44;;;;;;;0.10;0.10;;;;;;;13.44;100.00;96567.97;5024236;28;20634;-77
2023/10/12 08:22:26;;;;;;;0.10;0.10;;;;;;;13.52;100.00;96565.56;5021491;28;20052;-77
2023/10/12 08:25:14;;;;;;;0.10;0.10;;;;;;;13.56;100.00;96544.34;5021113;28;20045;-76
2023/10/12 08:28:06;;;;;;;0.10;0.10;;;;;;;13.60;100.00;96546.22;5022639;28;20045;-76
2023/10/12 08:31:01;;;;;;;;;;;;;;;13.66;100.00;96533.63;5025258;28;20045;-76
2023/10/12 08:33:58;;;;;;;0.10;0.10;;;;;;;13.58;100.00;96543.00;5020592;28;20059;-76
2023/10/12 08:39:53;;;;;;;0.10;0.10;;;;;;;13.52;100.00;96557.50;5022973;28;20188;-76
2023/10/12 08:43:06;;;;;;;;;;;;;;;13.65;100.00;96575.81;5022905;28;20124;-76
2023/10/12 08:45:53;;;;;;;0.10;0.10;;;;;;;13.57;100.00;96570.97;5022932;28;19929;-76
2023/10/12 08:48:52;;;;;;;0.10;0.10;;;;;;;13.56;100.00;96577.41;5023225;28;20040;-76
2023/10/12 08:51:53;;;;;;;0.10;0.10;;;;;;;13.57;100.00;96583.59;5025027;28;20379;-77
2023/10/12 08:54:53;;;;;;;0.10;0.10;;;;;;;13.35;100.00;96568.47;5023925;28;20059;-76
2023/10/12 08:58:01;;;;;;;0.10;0.10;;;;;;;13.49;100.00;96563.41;5022032;28;20513;-76
2023/10/12 09:03:49;;;;;;;0.10;0.10;;;;;;;13.63;100.00;96544.91;5022318;28;20829;-76
2023/10/12 09:12:26;;;;;;;0.10;0.10;;;;;;;13.76;100.00;96546.25;5021234;28;20084;-77
2023/10/12 09:15:28;;;;;;;0.10;0.10;;;;;;;13.75;100.00;96548.16;5021952;28;20968;-77
2023/10/12 09:18:16;;;;;;;0.10;0.10;;;;;;;13.86;100.00;96527.47;5022502;28;20047;-78
2023/10/12 09:23:52;;;;;;;0.10;0.10;;;;;;;13.92;100.00;96534.44;5020796;28;20406;-79
2023/10/12 09:26:46;;;;;;;0.10;0.10;;;;;;;14.06;100.00;96529.34;5022760;28;20794;-78
2023/10/12 09:29:42;;;;;;;0.10;0.10;;;;;;;14.14;100.00;96529.63;5022374;28;20099;-78
2023/10/12 09:32:28;;;;;;;0.05;0.05;;;;;;;14.16;100.00;96538.25;5023449;28;20052;-79
2023/10/12 09:35:19;;;;;;;0.10;0.10;;;;;;;14.25;100.00;96535.03;5022481;28;20095;-78
2023/10/12 09:38:05;;;;;;;0.10;0.10;;;;;;;14.32;100.00;96533.69;5022589;28;20090;-79
2023/10/12 09:40:53;;;;;;;0.10;0.10;;;;;;;14.44;100.00;96544.16;5020316;28;20048;-78
2023/10/12 09:43:40;;;;;;;0.10;0.10;;;;;;;14.43;100.00;96539.84;5022052;28;20037;-78
2023/10/12 09:46:27;;;;;;;0.10;0.10;;;;;;;14.51;100.00;96542.03;5021095;28;20045;-78
2023/10/12 09:49:22;;;;;;;0.10;0.10;;;;;;;14.52;100.00;96535.56;5020664;28;20037;-79
2023/10/12 09:52:13;;;;;;;0.10;0.10;;;;;;;14.52;100.00;96538.25;5020637;28;20061;-79
2023/10/12 09:55:14;;;;;;;0.10;0.10;;;;;;;14.52;100.00;96527.47;5021074;28;20417;-79
2023/10/12 09:58:15;;;;;;;0.10;0.10;;;;;;;14.58;100.00;96533.69;5020625;28;20625;-78
2023/10/12 10:01:01;;;;;;;0.10;0.10;;;;;;;14.54;100.00;96540.66;5021806;28;20091;-79
2023/10/12 10:03:48;;;;;;;0.10;0.10;;;;;;;14.49;100.00;96536.13;5022843;28;20072;-78
2023/10/12 10:06:38;;;;;;;0.10;0.10;;;;;;;14.52;100.00;96538.25;5021324;28;20098;-78
2023/10/12 10:09:37;;;;;;;0.10;0.10;;;;;;;14.71;100.00;96547.38;5022788;28;20704;-79
2023/10/12 10:12:27;;;;;;;0.10;0.10;;;;;;;14.77;100.00;96542.78;5021787;28;20280;-78
2023/10/12 10:15:20;;;;;;;0.10;0.10;;;;;;;14.70;100.00;96543.06;5022970;28;20413;-78
2023/10/12 10:18:07;;;;;;;0.10;0.10;;;;;;;14.86;100.00;96532.25;5024157;28;20041;-78
2023/10/12 10:20:57;;;;;;;0.10;0.10;;;;;;;14.92;100.00;96531.97;5034914;28;20441;-78
2023/10/12 10:23:48;;;;;;;0.10;0.10;;;;;;;14.82;100.00;96536.59;5023400;28;20854;-78
2023/10/12 10:26:36;;;;;;;0.10;0.10;;;;;;;14.73;100.00;96537.16;5033550;28;20152;-78
2023/10/12 10:29:39;;;;;;;0.10;0.10;;;;;;;14.83;100.00;96538.19;5021776;28;20880;-78
2023/10/12 10:32:38;;;;;;;0.10;0.10;;;;;;;14.64;100.00;96517.25;5014708;28;22798;-78
2023/10/12 10:35:56;;;;;;;0.10;0.10;;;;;;;14.69;100.00;96513.72;5039242;28;20563;-78
2023/10/12 10:44:36;;;;;;;0.10;0.10;;;;;;;15.14;100.00;96515.47;5025095;28;20045;-78
2023/10/12 10:47:27;;;;;;;0.10;0.10;;;;;;;15.18;100.00;96526.50;5020888;28;20049;-78
2023/10/12 10:50:15;;;;;;;0.10;0.10;;;;;;;15.27;100.00;96528.34;5021055;28;20130;-78
2023/10/12 10:53:08;;;;;;;0.10;0.10;;;;;;;15.34;100.00;96536.13;5022264;28;20057;-77
2023/10/12 10:55:53;;;;;;;0.10;0.10;;;;;;;15.65;100.00;96536.03;5021273;28;20045;-78
2023/10/12 10:58:40;;;;;;;0.10;0.10;;;;;;;15.97;100.00;96528.25;5026127;28;20059;-78
2023/10/12 11:01:26;;;;;;;0.10;0.10;;;;;;;16.13;100.00;96527.06;5023399;28;20504;-78
2023/10/12 11:04:41;;;;;;;0.10;0.10;;;;;;;16.37;100.00;96526.31;5023506;28;20048;-78
2023/10/12 11:07:24;;;;;;;0.10;0.10;;;;;;;16.67;100.00;96527.94;5024482;28;20461;-78
2023/10/12 11:10:19;;;;;;;0.10;0.10;;;;;;;16.91;100.00;96517.97;5021399;28;20932;-78
2023/10/12 11:13:17;;;;;;;0.10;0.10;;;;;;;16.68;100.00;96519.53;5023640;28;20552;-79
2023/10/12 11:19:09;;;;;;;0.08;0.08;;;;;;;16.35;100.00;96521.22;5022937;28;20049;-78
2023/10/12 11:21:57;;;;;;;0.10;0.10;;;;;;;16.55;100.00;96527.50;5022041;28;20141;-79
2023/10/12 11:24:45;;;;;;;0.10;0.10;;;;;;;16.33;100.00;96509.84;5038034;28;20041;-78
2023/10/12 11:27:32;;;;;;;0.10;0.10;;;;;;;16.16;100.00;96507.56;5036174;28;20044;-79
2023/10/12 11:30:34;;;;;;;0.03;0.03;;;;;;;16.26;100.00;96508.56;5037197;28;20122;-79
2023/10/12 11:33:28;;;;;;;0.00;0.00;;;;;;;16.53;100.00;96499.97;5022878;28;20042;-78
2023/10/12 11:36:23;;;;;;;0.10;0.10;;;;;;;16.87;100.00;96484.50;5023080;28;20679;-78
2023/10/12 11:39:18;;;;;;;0.10;0.10;;;;;;;17.28;100.00;96492.13;5022733;28;20825;-78
2023/10/12 11:42:06;;;;;;;0.10;0.10;;;;;;;17.36;100.00;96487.97;5021673;28;20059;-78
2023/10/12 11:44:52;;;;;;;0.10;0.10;;;;;;;17.10;100.00;96492.88;5023024;28;20044;-78
2023/10/12 11:47:39;;;;;;;0.10;0.10;;;;;;;17.27;100.00;96479.69;5022639;28;20167;-78
2023/10/12 11:50:32;;;;;;;0.10;0.10;;;;;;;17.00;100.00;96474.91;5037070;28;20051;-79
2023/10/12 11:53:18;;;;;;;0.10;0.10;;;;;;;16.80;100.00;96467.03;5022089;28;20165;-78
2023/10/12 11:56:23;;;;;;;0.10;0.10;;;;;;;17.03;100.00;96468.91;5023144;28;20461;-78
2023/10/12 11:59:13;;;;;;;0.10;0.10;;;;;;;16.96;100.00;96466.56;5023060;28;20049;-78
2023/10/12 12:02:07;;;;;;;0.10;0.10;;;;;;;17.10;100.00;96465.84;5022836;28;20136;-78
2023/10/12 12:04:52;;;;;;;0.10;0.10;;;;;;;17.14;100.00;96461.50;5023463;28;20045;-78
2023/10/12 12:07:38;;;;;;;0.10;0.10;;;;;;;17.18;100.00;96465.22;5020965;28;20045;-78
2023/10/12 12:13:47;;;;;;;0.10;0.10;;;;;;;18.79;100.00;96465.66;5022203;28;20525;-78
2023/10/12 12:16:34;;;;;;;0.10;0.10;;;;;;;17.94;100.00;96461.44;5023387;28;20632;-79
2023/10/12 12:19:24;;;;;;;0.10;0.10;;;;;;;18.08;100.00;96448.75;5023372;28;20047;-81
2023/10/12 12:22:15;;;;;;;0.08;0.08;;;;;;;18.06;100.00;96440.13;5022357;28;20040;-80
2023/10/12 12:25:13;;;;;;;0.10;0.10;;;;;;;18.79;100.00;96446.69;5023972;28;20048;-80
2023/10/12 12:28:03;;;;;;;0.10;0.10;;;;;;;19.17;100.00;96435.63;5020099;28;20045;-79
2023/10/12 12:30:55;;;;;;;0.10;0.10;;;;;;;19.33;100.00;96419.81;5021890;28;20075;-77
2023/10/12 12:33:43;;;;;;;0.10;0.10;;;;;;;18.43;100.00;96414.00;5020445;28;20400;-78
2023/10/12 12:36:30;;;;;;;0.10;0.10;;;;;;;17.82;100.00;96420.50;5021847;28;20037;-81
2023/10/12 12:39:21;;;;;;;0.10;0.10;;;;;;;17.83;100.00;96414.00;5023278;28;20048;-81
2023/10/12 12:42:10;;;;;;;0.10;0.10;;;;;;;17.91;100.00;96402.50;5022203;28;20076;-80
2023/10/12 12:44:56;;;;;;;0.10;0.10;;;;;;;17.98;100.00;96404.81;5019484;28;20691;-81
2023/10/12 12:47:44;;;;;;;0.10;0.10;;;;;;;18.48;100.00;96415.84;5022997;28;20045;-79
2023/10/12 12:50:31;;;;;;;0.10;0.10;;;;;;;18.07;100.00;96409.25;5022848;28;20040;-79
2023/10/12 12:53:20;;;;;;;0.10;0.10;;;;;;;18.13;100.00;96407.25;5021833;28;20049;-80
2023/10/12 12:56:10;;;;;;;0.10;0.10;;;;;;;17.70;100.00;96409.28;5023667;28;20409;-80
2023/10/12 12:58:55;;;;;;;0.10;0.10;;;;;;;17.72;100.00;96401.72;5020230;28;20053;-81
2023/10/12 13:01:45;;;;;;;0.10;0.10;;;;;;;19.01;100.00;96413.44;5023544;28;20574;-81
2023/10/12 13:04:35;;;;;;;;;;;;;;;20.36;100.00;96411.66;5024216;28;20049;-80
2023/10/12 13:07:22;;;;;;;0.10;0.10;;;;;;;19.48;100.00;96420.28;5023689;28;20389;-79
2023/10/12 13:10:11;;;;;;;0.10;0.10;;;;;;;18.64;100.00;96431.50;5023555;28;20052;-79
2023/10/12 13:12:57;;;;;;;0.10;0.10;;;;;;;18.06;100.00;96421.19;5021429;28;20049;-81
2023/10/12 13:15:47;;;;;;;0.10;0.10;;;;;;;17.47;100.00;96427.22;5022391;28;20041;-79
2023/10/12 13:18:33;;;;;;;0.10;0.10;;;;;;;17.14;100.00;96416.34;5022414;28;20048;-78
2023/10/12 13:21:22;;;;;;;0.10;0.10;;;;;;;17.00;100.00;96420.84;5022735;28;20103;-80
2023/10/12 13:24:08;;;;;;;0.10;0.10;;;;;;;16.98;100.00;96414.94;5023127;28;20348;-79
2023/10/12 13:26:55;;;;;;;0.10;0.10;;;;;;;16.79;100.00;96436.50;5018244;28;20045;-80
2023/10/12 13:29:42;;;;;;;0.00;0.00;;;;;;;16.40;100.00;96445.53;5022959;28;20040;-79
2023/10/12 13:32:31;;;;;;;0.10;0.10;;;;;;;16.14;100.00;96441.47;5019944;28;20046;-80
2023/10/12 13:35:31;;;;;;;0.10;0.10;;;;;;;16.19;100.00;96433.34;5020424;28;20045;-78
2023/10/12 13:38:18;;;;;;;0.10;0.10;;;;;;;16.13;100.00;96413.69;5023737;28;20656;-80
2023/10/12 13:41:04;;;;;;;0.10;0.10;;;;;;;16.05;100.00;96416.19;5020330;28;20110;-78
2023/10/12 13:43:49;;;;;;;0.10;0.10;;;;;;;15.98;100.00;96421.91;5023246;28;20056;-80
2023/10/12 13:46:35;;;;;;;0.10;0.10;;;;;;;15.74;100.00;96429.94;5023983;28;20042;-79
2023/10/12 13:49:22;;;;;;;0.10;0.10;;;;;;;15.36;100.00;96431.53;5021480;28;20041;-79
2023/10/12 13:52:09;;;;;;;0.10;0.10;;;;;;;15.28;100.00;96397.88;5019666;28;20041;-79
2023/10/12 13:54:57;;;;;;;0.10;0.10;;;;;;;14.99;100.00;96410.44;5021438;28;20054;-78
2023/10/12 13:57:50;;;;;;;0.10;0.10;;;;;;;14.88;100.00;96415.06;5019569;28;20049;-77
2023/10/12 14:00:37;;;;;;;0.00;0.00;;;;;;;14.90;100.00;96425.56;5019932;28;20090;-78
2023/10/12 14:03:29;;;;;;;0.10;0.10;;;;;;;14.95;100.00;96439.84;5020590;28;20136;-78
2023/10/12 14:06:15;;;;;;;0.08;0.08;;;;;;;14.77;100.00;96438.53;5021037;28;20120;-78
2023/10/12 14:09:01;;;;;;;0.10;0.10;;;;;;;14.63;100.00;96439.41;5018410;28;20091;-78
2023/10/12 14:11:51;;;;;;;0.10;0.10;;;;;;;14.58;100.00;96442.94;5021569;28;20079;-79
2023/10/12 14:14:37;;;;;;;0.10;0.10;;;;;;;14.75;100.00;96438.00;5021999;28;20731;-79
2023/10/12 14:17:24;;;;;;;0.10;0.10;;;;;;;14.63;100.00;96429.47;5021734;28;20060;-79
2023/10/12 14:20:10;;;;;;;0.10;0.10;;;;;;;14.34;100.00;96436.50;5021294;28;20052;-80
2023/10/12 14:23:05;;;;;;;0.10;0.10;;;;;;;14.32;100.00;96427.88;5022037;28;20211;-79
2023/10/12 14:25:51;;;;;;;0.10;0.10;;;;;;;14.32;100.00;96438.63;5021734;28;20625;-79
2023/10/12 14:28:41;;;;;;;0.10;0.10;;;;;;;14.25;100.00;96428.19;5020811;28;20114;-79
2023/10/12 14:31:27;;;;;;;0.10;0.10;;;;;;;14.21;100.00;96425.22;5021125;28;21095;-80
2023/10/12 14:34:14;;;;;;;0.10;0.10;;;;;;;14.37;100.00;96415.22;5019202;28;21245;-81